createdAt,value
2022-12-07T00:01:49.292Z,9.27
2022-12-07T00:04:20.297Z,9.00
2022-12-07T00:06:53.031Z,8.59
2022-12-07T00:09:23.321Z,9.00
2022-12-07T00:11:53.738Z,9.11
2022-12-07T00:14:23.289Z,7.36
2022-12-07T00:16:53.500Z,8.56
2022-12-07T00:19:22.204Z,8.59
2022-12-07T00:21:50.593Z,8.61
2022-12-07T00:24:19.289Z,6.95
2022-12-07T00:26:49.072Z,8.12
2022-12-07T00:29:20.849Z,8.81
2022-12-07T00:31:49.692Z,9.11
2022-12-07T00:34:20.480Z,8.50
2022-12-07T00:36:49.390Z,8.39
2022-12-07T00:39:18.060Z,8.77
2022-12-07T00:41:48.077Z,9.08
2022-12-07T00:44:16.792Z,9.08
2022-12-07T00:46:46.530Z,8.89
2022-12-07T00:49:14.924Z,7.93
2022-12-07T00:51:43.267Z,8.12
2022-12-07T00:54:11.628Z,8.37
2022-12-07T00:56:39.987Z,8.61
2022-12-07T00:59:14.165Z,8.94
2022-12-07T01:01:42.679Z,8.70
2022-12-07T01:04:11.075Z,9.13
2022-12-07T01:06:40.387Z,8.27
2022-12-07T01:09:08.719Z,8.63
2022-12-07T01:11:37.143Z,8.91
2022-12-07T01:14:05.956Z,8.83
2022-12-07T01:16:36.156Z,8.61
2022-12-07T01:19:05.755Z,8.41
2022-12-07T01:21:38.562Z,8.19
2022-12-07T01:24:11.181Z,8.49
2022-12-07T01:26:39.810Z,8.74
2022-12-07T01:29:08.148Z,8.78
2022-12-07T01:31:37.954Z,9.15
2022-12-07T01:34:06.624Z,9.30
2022-12-07T01:36:37.164Z,9.25
2022-12-07T01:39:08.827Z,8.72
2022-12-07T01:41:40.345Z,8.95
2022-12-07T01:44:27.563Z,9.12
2022-12-07T01:46:59.411Z,9.33
2022-12-07T01:49:33.946Z,9.44
2022-12-07T01:52:15.556Z,9.32
2022-12-07T01:54:45.986Z,8.87
2022-12-07T01:57:16.631Z,8.98
2022-12-07T01:59:47.420Z,8.93
2022-12-07T02:02:25.095Z,9.16
2022-12-07T02:04:55.437Z,8.21
2022-12-07T02:07:25.352Z,8.45
2022-12-07T02:09:53.738Z,8.93
2022-12-07T02:12:24.484Z,9.05
2022-12-07T02:14:53.703Z,9.11
2022-12-07T02:17:34.242Z,8.25
2022-12-07T02:20:30.058Z,8.55
2022-12-07T02:23:39.140Z,8.98
2022-12-07T02:26:41.276Z,8.67
2022-12-07T02:29:24.276Z,9.13
2022-12-07T02:32:07.879Z,9.33
2022-12-07T02:34:48.463Z,9.28
2022-12-07T02:37:34.544Z,8.67
2022-12-07T02:40:11.719Z,9.22
2022-12-07T02:42:47.543Z,9.27
2022-12-07T02:45:22.460Z,9.30
2022-12-07T02:47:55.234Z,9.45
2022-12-07T02:50:24.354Z,9.29
2022-12-07T02:52:52.921Z,9.33
2022-12-07T02:55:28.063Z,8.55
2022-12-07T02:58:23.013Z,8.74
2022-12-07T03:01:06.560Z,9.17
2022-12-07T03:03:37.771Z,9.27
2022-12-07T03:06:18.610Z,9.27
2022-12-07T03:08:58.319Z,9.16
2022-12-07T03:11:34.866Z,9.11
2022-12-07T03:14:14.045Z,9.07
2022-12-07T03:16:49.764Z,9.26
2022-12-07T03:19:22.155Z,9.21
2022-12-07T03:21:57.633Z,9.09
2022-12-07T03:24:31.792Z,9.18
2022-12-07T03:27:11.703Z,9.13
2022-12-07T03:29:46.035Z,9.00
2022-12-07T03:32:21.389Z,8.96
2022-12-07T03:34:55.343Z,9.08
2022-12-07T03:37:33.507Z,9.09
2022-12-07T03:40:10.125Z,9.06
2022-12-07T03:42:38.650Z,9.15
2022-12-07T03:45:08.194Z,8.68
2022-12-07T03:47:49.014Z,8.89
2022-12-07T03:50:27.599Z,8.97
2022-12-07T03:53:00.520Z,9.08
2022-12-07T03:55:33.067Z,9.13
2022-12-07T03:58:06.090Z,9.25
2022-12-07T04:00:35.152Z,9.25
2022-12-07T04:03:04.987Z,9.25
2022-12-07T04:05:34.707Z,9.24
2022-12-07T04:08:03.258Z,9.33
2022-12-07T04:10:31.969Z,9.26
2022-12-07T04:13:00.326Z,9.28
2022-12-07T04:15:28.695Z,9.30
2022-12-07T04:17:57.071Z,9.32
2022-12-07T04:20:26.777Z,9.32
2022-12-07T04:22:55.117Z,9.32
2022-12-07T04:25:23.457Z,9.36
2022-12-07T04:27:51.794Z,9.15
2022-12-07T04:30:21.792Z,9.24
2022-12-07T04:32:50.150Z,8.70
2022-12-07T04:35:18.668Z,8.89
2022-12-07T04:37:48.408Z,9.04
2022-12-07T04:40:16.899Z,9.01
2022-12-07T04:42:45.233Z,9.00
2022-12-07T04:45:13.542Z,9.10
2022-12-07T04:47:41.888Z,9.17
2022-12-07T04:50:12.783Z,9.15
2022-12-07T04:52:41.138Z,9.20
2022-12-07T04:55:11.212Z,9.21
2022-12-07T04:57:39.586Z,9.25
2022-12-07T05:00:09.983Z,9.27
2022-12-07T05:02:38.418Z,9.26
2022-12-07T05:05:07.363Z,9.28
2022-12-07T05:07:35.757Z,9.19
2022-12-07T05:10:04.691Z,9.02
2022-12-07T05:12:34.709Z,9.14
2022-12-07T05:15:03.029Z,9.16
2022-12-07T05:17:31.453Z,9.10
2022-12-07T05:20:00.097Z,9.11
2022-12-07T05:22:29.301Z,9.10
2022-12-07T05:24:57.943Z,8.94
2022-12-07T05:27:26.437Z,9.07
2022-12-07T05:29:56.169Z,9.15
2022-12-07T05:32:24.566Z,9.22
2022-12-07T05:34:53.480Z,9.20
2022-12-07T05:37:21.809Z,9.18
2022-12-07T05:39:50.207Z,9.19
2022-12-07T05:42:18.566Z,9.24
2022-12-07T05:44:48.446Z,9.18
2022-12-07T05:47:18.760Z,9.19
2022-12-07T05:49:47.169Z,9.24
2022-12-07T05:52:15.569Z,9.18
2022-12-07T05:54:43.968Z,9.15
2022-12-07T05:57:12.340Z,9.20
2022-12-07T05:59:39.739Z,9.18
2022-12-07T06:02:11.198Z,9.09
2022-12-07T06:04:44.990Z,9.13
2022-12-07T06:07:16.449Z,9.11
2022-12-07T06:09:45.158Z,9.17
2022-12-07T06:12:37.519Z,9.19
2022-12-07T06:15:07.063Z,9.18
2022-12-07T06:17:35.394Z,9.08
2022-12-07T06:20:06.339Z,9.15
2022-12-07T06:22:34.743Z,9.09
2022-12-07T06:25:08.630Z,9.19
2022-12-07T06:27:37.726Z,8.76
2022-12-07T06:30:09.556Z,9.07
2022-12-07T06:32:39.264Z,9.11
2022-12-07T06:35:10.155Z,9.16
2022-12-07T06:37:38.495Z,9.17
2022-12-07T06:40:08.986Z,9.06
2022-12-07T06:42:37.356Z,9.11
2022-12-07T06:45:06.570Z,9.10
2022-12-07T06:47:43.393Z,8.68
2022-12-07T06:50:15.119Z,8.88
2022-12-07T06:52:43.416Z,8.93
2022-12-07T06:55:11.828Z,8.93
2022-12-07T06:57:40.163Z,8.91
2022-12-07T07:00:10.310Z,8.92
2022-12-07T07:02:38.779Z,9.01
2022-12-07T07:05:07.461Z,9.05
2022-12-07T07:07:51.698Z,9.07
2022-12-07T07:10:25.615Z,9.07
2022-12-07T07:12:57.384Z,9.06
2022-12-07T07:15:26.087Z,9.14
2022-12-07T07:17:54.424Z,9.06
2022-12-07T07:20:23.314Z,9.05
2022-12-07T07:22:53.131Z,8.95
2022-12-07T07:25:21.477Z,8.94
2022-12-07T07:27:49.855Z,8.98
2022-12-07T07:30:18.781Z,9.00
2022-12-07T07:32:47.191Z,8.97
2022-12-07T07:35:15.678Z,8.95
2022-12-07T07:37:44.079Z,8.95
2022-12-07T07:40:14.384Z,8.95
2022-12-07T07:42:42.748Z,8.94
2022-12-07T07:45:12.375Z,8.91
2022-12-07T07:47:40.700Z,8.97
2022-12-07T07:50:10.335Z,9.02
2022-12-07T07:52:38.789Z,9.03
2022-12-07T07:55:09.636Z,9.00
2022-12-07T07:57:39.845Z,8.93
2022-12-07T08:00:12.463Z,8.97
2022-12-07T08:02:41.050Z,8.70
2022-12-07T08:05:10.625Z,8.83
2022-12-07T08:07:39.026Z,8.90
2022-12-07T08:10:09.936Z,8.88
2022-12-07T08:13:01.623Z,8.97
2022-12-07T08:15:32.371Z,8.87
2022-12-07T08:18:01.247Z,9.07
2022-12-07T08:20:33.059Z,9.02
2022-12-07T08:23:01.458Z,8.94
2022-12-07T08:25:30.353Z,9.03
2022-12-07T08:28:01.455Z,8.91
2022-12-07T08:30:30.724Z,8.96
2022-12-07T08:32:59.579Z,8.95
2022-12-07T08:35:28.130Z,8.66
2022-12-07T08:37:58.334Z,8.83
2022-12-07T08:40:26.964Z,8.89
2022-12-07T08:42:55.525Z,8.70
2022-12-07T08:45:27.642Z,8.80
2022-12-07T08:48:03.880Z,8.90
2022-12-07T08:50:33.821Z,8.83
2022-12-07T08:53:03.302Z,8.69
2022-12-07T08:55:31.811Z,8.99
2022-12-07T08:58:01.366Z,9.16
2022-12-07T09:00:31.210Z,8.93
2022-12-07T09:02:59.581Z,8.15
2022-12-07T09:05:28.917Z,8.07
2022-12-07T09:08:02.365Z,7.93
2022-12-07T09:10:31.211Z,8.60
2022-12-07T09:13:01.801Z,8.58
2022-12-07T09:15:32.440Z,7.87
2022-12-07T09:18:00.911Z,8.14
2022-12-07T09:20:29.638Z,8.72
2022-12-07T09:22:58.049Z,8.97
2022-12-07T09:25:26.431Z,8.46
2022-12-07T09:27:59.152Z,8.95
2022-12-07T09:30:28.058Z,8.58
2022-12-07T09:32:59.287Z,9.00
2022-12-07T09:35:28.512Z,8.25
2022-12-07T09:37:56.847Z,8.54
2022-12-07T09:40:26.425Z,8.79
2022-12-07T09:42:57.160Z,9.03
2022-12-07T09:45:29.202Z,8.76
2022-12-07T09:48:00.586Z,8.72
2022-12-07T09:50:31.087Z,9.01
2022-12-07T09:53:12.623Z,8.50
2022-12-07T09:55:43.192Z,8.79
2022-12-07T09:58:20.191Z,8.94
2022-12-07T10:00:48.585Z,8.98
2022-12-07T10:03:18.422Z,8.93
2022-12-07T10:05:51.411Z,9.21
2022-12-07T10:08:19.864Z,9.14
2022-12-07T10:10:53.257Z,9.17
2022-12-07T10:13:24.463Z,9.08
2022-12-07T10:15:56.255Z,9.09
2022-12-07T10:18:34.633Z,9.20
2022-12-07T10:21:13.639Z,9.17
2022-12-07T10:23:44.497Z,9.19
2022-12-07T10:26:34.851Z,8.84
2022-12-07T10:29:15.877Z,9.29
2022-12-07T10:31:45.557Z,9.40
2022-12-07T10:34:26.158Z,9.72
2022-12-07T10:36:55.938Z,8.83
2022-12-07T10:39:25.842Z,8.96
2022-12-07T10:41:59.448Z,9.55
2022-12-07T10:44:30.942Z,9.34
2022-12-07T10:47:35.255Z,9.63
2022-12-07T10:50:43.854Z,8.71
2022-12-07T10:53:42.903Z,9.17
2022-12-07T10:56:38.372Z,8.19
2022-12-07T10:59:42.018Z,8.63
2022-12-07T11:02:33.275Z,9.03
2022-12-07T11:05:15.932Z,8.44
2022-12-07T11:07:57.247Z,9.38
2022-12-07T11:10:31.829Z,9.11
2022-12-07T11:13:29.142Z,8.48
2022-12-07T11:16:27.096Z,8.77
2022-12-07T11:19:21.741Z,9.15
2022-12-07T11:21:59.869Z,8.67
2022-12-07T11:24:43.366Z,8.73
2022-12-07T11:27:23.631Z,9.30
2022-12-07T11:30:15.816Z,8.89
2022-12-07T11:33:12.858Z,9.01
2022-12-07T11:35:56.841Z,8.89
2022-12-07T11:38:37.941Z,9.20
2022-12-07T11:41:17.599Z,9.21
2022-12-07T11:44:07.443Z,9.63
2022-12-07T11:46:50.158Z,9.83
2022-12-07T11:49:28.621Z,8.91
2022-12-07T11:52:03.538Z,9.42
2022-12-07T11:54:41.985Z,9.00
2022-12-07T11:57:20.534Z,9.34
2022-12-07T11:59:54.527Z,9.56
2022-12-07T12:02:28.954Z,9.74
2022-12-07T12:05:04.480Z,9.41
2022-12-07T12:10:33.266Z,8.69
2022-12-07T12:16:39.405Z,8.50
2022-12-07T12:19:29.815Z,9.28
2022-12-07T12:22:06.875Z,9.39
2022-12-07T12:24:37.602Z,8.57
2022-12-07T12:27:12.473Z,8.11
2022-12-07T12:29:44.850Z,9.04
2022-12-07T12:32:20.020Z,8.11
2022-12-07T12:35:21.999Z,8.19
2022-12-07T12:37:50.781Z,8.86
2022-12-07T12:40:50.666Z,7.85
2022-12-07T12:43:53.512Z,7.97
2022-12-07T12:46:54.381Z,7.01
2022-12-07T12:50:17.697Z,8.17
2022-12-07T12:52:57.139Z,8.87
2022-12-07T12:56:08.427Z,9.24
2022-12-07T12:58:44.564Z,9.60
2022-12-07T13:01:44.162Z,9.77
2022-12-07T13:05:02.455Z,9.82
2022-12-07T13:07:57.581Z,9.76
2022-12-07T13:10:45.300Z,9.88
2022-12-07T13:13:36.086Z,9.87
2022-12-07T13:16:51.779Z,9.87
2022-12-07T13:20:01.206Z,9.71
2022-12-07T13:23:00.272Z,9.73
2022-12-07T13:25:48.168Z,9.84
2022-12-07T13:28:20.093Z,9.83
2022-12-07T13:31:02.098Z,9.78
2022-12-07T13:33:32.744Z,9.39
2022-12-07T13:36:02.174Z,9.51
2022-12-07T13:38:34.260Z,9.56
2022-12-07T13:41:05.813Z,9.06
2022-12-07T13:43:44.374Z,9.24
2022-12-07T13:46:18.422Z,9.51
2022-12-07T13:48:51.034Z,9.60
2022-12-07T13:51:23.844Z,8.87
2022-12-07T13:53:55.769Z,9.15
2022-12-07T13:56:30.294Z,9.23
2022-12-07T13:58:58.804Z,9.02
2022-12-07T14:01:28.205Z,9.03
2022-12-07T14:03:58.300Z,9.20
2022-12-07T14:06:29.321Z,9.17
2022-12-07T14:09:19.006Z,8.95
2022-12-07T14:11:48.306Z,9.23
2022-12-07T14:14:20.993Z,9.35
2022-12-07T14:17:00.999Z,8.72
2022-12-07T14:19:51.560Z,9.18
2022-12-07T14:22:33.051Z,9.19
2022-12-07T14:25:21.098Z,9.29
2022-12-07T14:27:58.516Z,9.30
2022-12-07T14:30:30.307Z,9.28
2022-12-07T14:33:02.315Z,9.34
2022-12-07T14:35:33.929Z,9.29
2022-12-07T14:38:02.463Z,9.26
2022-12-07T14:40:32.528Z,9.21
2022-12-07T14:43:05.139Z,9.34
2022-12-07T14:45:33.986Z,9.36
2022-12-07T14:53:53.147Z,8.95
2022-12-07T14:56:25.947Z,9.21
2022-12-07T14:58:54.302Z,9.14
2022-12-07T15:01:22.680Z,9.20
2022-12-07T15:03:51.326Z,9.16
2022-12-07T15:06:21.269Z,9.12
2022-12-07T15:08:49.588Z,9.16
2022-12-07T15:11:19.378Z,9.23
2022-12-07T15:14:05.059Z,9.13
2022-12-07T15:17:06.319Z,9.07
2022-12-07T15:19:30.212Z,9.13
2022-12-07T15:22:00.964Z,9.09
2022-12-07T15:24:29.422Z,9.13
2022-12-07T15:26:57.804Z,9.16
2022-12-07T15:29:26.317Z,9.16
2022-12-07T15:31:57.440Z,9.31
2022-12-07T15:34:27.600Z,9.32
2022-12-07T15:36:56.154Z,9.25
2022-12-07T15:39:26.060Z,9.23
2022-12-07T15:41:54.430Z,9.28
2022-12-07T15:44:40.131Z,9.29
2022-12-07T15:47:08.519Z,9.25
2022-12-07T15:49:37.301Z,9.28
2022-12-07T15:52:06.196Z,9.31
2022-12-07T15:54:35.997Z,9.32
2022-12-07T15:57:04.906Z,9.33
2022-12-07T15:59:33.278Z,9.36
2022-12-07T16:02:01.828Z,9.38
2022-12-07T16:04:30.830Z,9.39
2022-12-07T16:06:59.624Z,9.46
2022-12-07T16:09:27.934Z,9.49
2022-12-07T16:11:57.795Z,9.35
2022-12-07T16:14:26.215Z,9.34
2022-12-07T16:16:54.651Z,9.44
2022-12-07T16:19:23.082Z,9.44
2022-12-07T16:21:51.454Z,9.47
2022-12-07T16:24:19.822Z,9.44
2022-12-07T16:26:50.444Z,9.14
2022-12-07T16:29:22.479Z,9.34
2022-12-07T16:31:51.905Z,9.32
2022-12-07T16:34:20.632Z,9.41
2022-12-07T16:37:05.823Z,9.31
2022-12-07T16:39:35.948Z,9.31
2022-12-07T16:42:04.882Z,9.25
2022-12-07T16:44:34.583Z,9.33
2022-12-07T16:47:02.983Z,9.42
2022-12-07T16:49:31.604Z,9.49
2022-12-07T16:54:48.865Z,9.29
2022-12-07T16:57:22.609Z,9.39
2022-12-07T16:59:54.101Z,9.33
2022-12-07T17:02:22.610Z,9.45
2022-12-07T17:04:51.000Z,9.38
2022-12-07T17:07:19.501Z,8.76
2022-12-07T17:09:48.112Z,9.24
2022-12-07T17:12:16.529Z,9.33
2022-12-07T17:15:02.741Z,8.11
2022-12-07T17:17:33.374Z,8.49
2022-12-07T17:20:01.744Z,8.88
2022-12-07T17:22:30.095Z,8.79
2022-12-07T17:24:58.423Z,9.00
2022-12-07T17:27:26.812Z,8.74
2022-12-07T17:29:55.340Z,9.13
2022-12-07T17:32:23.739Z,9.23
2022-12-07T17:34:53.436Z,9.30
2022-12-07T17:37:21.805Z,9.31
2022-12-07T17:39:50.207Z,9.38
2022-12-07T17:42:35.667Z,9.43
2022-12-07T17:45:04.750Z,9.10
2022-12-07T17:47:33.349Z,9.36
2022-12-07T17:50:07.476Z,8.98
2022-12-07T17:52:56.509Z,9.25
2022-12-07T17:55:24.945Z,9.23
2022-12-07T17:57:53.376Z,9.38
2022-12-07T18:00:22.246Z,8.82
2022-12-07T18:02:50.617Z,9.21
2022-12-07T18:05:20.655Z,9.24
2022-12-07T18:07:49.255Z,9.29
2022-12-07T18:10:17.867Z,9.34
2022-12-07T18:12:51.555Z,9.32
2022-12-07T18:15:20.654Z,9.36
2022-12-07T18:17:49.447Z,8.95
2022-12-07T18:20:19.380Z,8.81
2022-12-07T18:22:47.751Z,9.11
2022-12-07T18:25:16.150Z,9.31
2022-12-07T18:27:44.534Z,9.33
2022-12-07T18:30:14.253Z,9.06
2022-12-07T18:32:42.687Z,9.26
2022-12-07T18:35:11.256Z,9.37
2022-12-07T18:37:42.488Z,9.29
2022-12-07T18:40:12.883Z,8.78
2022-12-07T18:42:41.257Z,8.91
2022-12-07T18:45:10.776Z,8.48
2022-12-07T18:47:39.127Z,9.08
2022-12-07T18:50:09.290Z,8.07
2022-12-07T18:52:37.723Z,8.59
2022-12-07T18:55:08.882Z,8.81
2022-12-07T18:57:37.240Z,8.15
2022-12-07T19:00:07.802Z,8.62
2022-12-07T19:02:36.689Z,8.57
2022-12-07T19:05:05.669Z,8.49
2022-12-07T19:07:34.247Z,8.96
2022-12-07T19:10:02.627Z,9.17
2022-12-07T19:12:32.434Z,9.19
2022-12-07T19:15:01.137Z,8.85
2022-12-07T19:17:29.895Z,8.47
2022-12-07T19:19:58.209Z,8.30
2022-12-07T19:22:26.746Z,8.85
2022-12-07T19:24:56.661Z,8.95
2022-12-07T19:27:25.471Z,8.92
2022-12-07T19:29:55.248Z,8.95
2022-12-07T19:32:23.681Z,8.96
2022-12-07T19:34:52.670Z,8.20
2022-12-07T19:37:21.030Z,8.93
2022-12-07T19:39:51.932Z,7.60
2022-12-07T19:42:20.413Z,8.31
2022-12-07T19:44:48.740Z,8.60
2022-12-07T19:47:19.104Z,8.88
2022-12-07T19:49:47.768Z,8.43
2022-12-07T19:52:16.561Z,7.65
2022-12-07T19:54:44.918Z,8.63
2022-12-07T19:57:16.147Z,8.89
2022-12-07T19:59:46.343Z,9.12
2022-12-07T20:02:17.553Z,8.71
2022-12-07T20:04:46.145Z,8.68
2022-12-07T20:07:14.607Z,8.98
2022-12-07T20:09:43.328Z,9.15
2022-12-07T20:12:29.853Z,9.14
2022-12-07T20:14:59.399Z,9.17
2022-12-07T20:17:29.557Z,9.23
2022-12-07T20:19:57.946Z,8.22
2022-12-07T20:22:26.343Z,8.76
2022-12-07T20:24:54.699Z,8.91
2022-12-07T20:27:23.117Z,8.02
2022-12-07T20:29:51.577Z,7.98
2022-12-07T20:32:19.912Z,7.78
2022-12-07T20:34:49.750Z,7.68
2022-12-07T20:37:18.144Z,7.61
2022-12-07T20:39:46.575Z,8.47
2022-12-07T20:42:32.300Z,7.86
2022-12-07T20:45:03.283Z,8.47
2022-12-07T20:47:33.139Z,8.34
2022-12-07T20:50:03.129Z,8.00
2022-12-07T20:52:32.422Z,8.37
2022-12-07T20:55:01.020Z,7.24
2022-12-07T20:57:29.459Z,8.47
2022-12-07T20:59:57.905Z,8.04
2022-12-07T21:02:26.465Z,8.57
2022-12-07T21:04:54.904Z,8.35
2022-12-07T21:07:24.604Z,8.41
2022-12-07T21:09:53.930Z,8.38
2022-12-07T21:12:22.316Z,8.96
2022-12-07T21:14:50.799Z,8.79
2022-12-07T21:17:19.112Z,8.84
2022-12-07T21:19:47.866Z,9.01
2022-12-07T21:22:16.235Z,7.60
2022-12-07T21:24:46.058Z,8.61
2022-12-07T21:27:14.388Z,8.14
2022-12-07T21:29:44.611Z,8.09
2022-12-07T21:32:15.537Z,8.04
2022-12-07T21:34:44.001Z,8.56
2022-12-07T21:37:12.386Z,8.95
2022-12-07T21:39:40.773Z,8.46
2022-12-07T21:42:10.556Z,8.92
2022-12-07T21:44:39.075Z,9.12
2022-12-07T21:47:07.830Z,8.62
2022-12-07T21:49:36.690Z,8.97
2022-12-07T21:52:05.879Z,8.88
2022-12-07T21:54:34.886Z,9.07
2022-12-07T21:57:03.289Z,8.67
2022-12-07T21:59:33.019Z,9.10
2022-12-07T22:02:01.440Z,9.15
2022-12-07T22:04:30.123Z,9.16
2022-12-07T22:06:59.226Z,9.23
2022-12-07T22:09:30.435Z,9.31
2022-12-07T22:11:59.270Z,8.82
2022-12-07T22:14:45.306Z,9.09
2022-12-07T22:17:15.282Z,8.90
2022-12-07T22:19:43.963Z,8.67
2022-12-07T22:22:16.221Z,8.82
2022-12-07T22:24:45.540Z,8.85
2022-12-07T22:27:14.142Z,9.05
2022-12-07T22:29:43.055Z,9.14
2022-12-07T22:32:39.971Z,9.23
2022-12-07T22:35:02.164Z,9.10
2022-12-07T22:37:32.338Z,8.87
2022-12-07T22:40:00.998Z,8.80
2022-12-07T22:42:29.614Z,8.93
2022-12-07T22:44:58.227Z,9.03
2022-12-07T22:47:26.847Z,9.10
2022-12-07T22:49:55.705Z,9.03
2022-12-07T22:52:25.717Z,8.63
2022-12-07T22:54:54.333Z,8.76
2022-12-07T22:57:22.978Z,8.82
2022-12-07T22:59:51.633Z,8.65
2022-12-07T23:02:19.983Z,8.55
2022-12-07T23:04:48.304Z,8.78
2022-12-07T23:07:16.675Z,8.30
2022-12-07T23:09:46.430Z,8.63
2022-12-07T23:12:32.477Z,8.46
2022-12-07T23:15:00.992Z,8.54
2022-12-07T23:17:29.465Z,8.69
2022-12-07T23:19:57.823Z,8.83
2022-12-07T23:22:26.446Z,9.09
2022-12-07T23:24:56.386Z,9.03
2022-12-07T23:27:25.233Z,8.78
2022-12-07T23:29:53.564Z,8.80
2022-12-07T23:32:21.947Z,9.09
2022-12-07T23:34:50.296Z,8.91
2022-12-07T23:37:18.690Z,8.91
2022-12-07T23:39:47.043Z,9.06
2022-12-07T23:42:16.811Z,9.17
2022-12-07T23:44:45.169Z,9.12
2022-12-07T23:47:13.593Z,8.71
2022-12-07T23:49:41.964Z,8.59
2022-12-07T23:52:10.373Z,8.97
2022-12-07T23:54:38.728Z,8.41
2022-12-07T23:57:07.352Z,8.75
2022-12-07T23:59:38.585Z,8.99
